Adel, Oregon
Current Conditions -  °F | °C
As of 12:15 PM on Thursday 23 Oct 2014 (Local Time) from KLKV Reporting Station
Overcast Overcast  
Wind Chill: 42°   Ceiling: 6000
Heat Index: 48°   Visibility: 10mi
Dew Point: 45°   Wind: 15mph
Humidity: 87%   Direction: 190°S
Pressure: 30.09"   Gusts: 20mph
Location:  42.18°N, 119.9°W
Report Text: KLKV 231915Z AUTO 19013G17KT 10SM SCT038 OVC060 09/07 A3009 RMK AO1
Loading
Personal Weather Stations






























Interactive Weather Map
Tropical Storm Tracking
New forecast layout! Learn more

10-Day Weather Forecast

Advertisements
Track Severe Weather on mobile